sensor_id;sensor_type;location;lat;lon;timestamp;pressure;altitude;pressure_sealevel;temperature;humidity
49461;BME280;35355;49.198;-0.368;2022-07-29T00:02:11;101019.56;;;19.54;69.39
49461;BME280;35355;49.198;-0.368;2022-07-29T00:04:37;101023.78;;;19.51;69.53
49461;BME280;35355;49.198;-0.368;2022-07-29T00:07:04;101023.59;;;19.48;69.69
49461;BME280;35355;49.198;-0.368;2022-07-29T00:09:30;101022.38;;;19.40;69.74
49461;BME280;35355;49.198;-0.368;2022-07-29T00:11:59;101021.72;;;19.34;69.62
49461;BME280;35355;49.198;-0.368;2022-07-29T00:14:25;101025.22;;;19.26;70.22
49461;BME280;35355;49.198;-0.368;2022-07-29T00:16:50;101018.19;;;19.20;70.12
49461;BME280;35355;49.198;-0.368;2022-07-29T00:19:16;101031.53;;;19.18;70.21
49461;BME280;35355;49.198;-0.368;2022-07-29T00:21:42;101029.97;;;19.11;70.13
49461;BME280;35355;49.198;-0.368;2022-07-29T00:24:07;101027.34;;;19.06;70.01
49461;BME280;35355;49.198;-0.368;2022-07-29T00:26:33;101026.66;;;19.01;70.27
49461;BME280;35355;49.198;-0.368;2022-07-29T00:28:59;101025.94;;;18.95;70.62
49461;BME280;35355;49.198;-0.368;2022-07-29T00:31:25;101018.56;;;18.90;70.76
49461;BME280;35355;49.198;-0.368;2022-07-29T00:33:51;101020.31;;;18.86;70.48
49461;BME280;35355;49.198;-0.368;2022-07-29T00:36:16;101020.72;;;18.80;70.86
49461;BME280;35355;49.198;-0.368;2022-07-29T00:38:42;101016.44;;;18.73;70.87
49461;BME280;35355;49.198;-0.368;2022-07-29T00:41:10;101013.16;;;18.71;70.94
49461;BME280;35355;49.198;-0.368;2022-07-29T00:43:36;101017.03;;;18.70;71.02
49461;BME280;35355;49.198;-0.368;2022-07-29T00:46:02;101014.59;;;18.69;71.08
49461;BME280;35355;49.198;-0.368;2022-07-29T00:48:27;101013.16;;;18.71;71.03
49461;BME280;35355;49.198;-0.368;2022-07-29T00:50:52;101011.41;;;18.75;71.11
49461;BME280;35355;49.198;-0.368;2022-07-29T00:53:19;101006.38;;;18.77;71.28
49461;BME280;35355;49.198;-0.368;2022-07-29T00:55:45;101005.75;;;18.81;71.34
49461;BME280;35355;49.198;-0.368;2022-07-29T00:58:12;101005.13;;;18.84;71.31
49461;BME280;35355;49.198;-0.368;2022-07-29T01:00:38;100997.41;;;18.86;71.38
49461;BME280;35355;49.198;-0.368;2022-07-29T01:03:06;101006.19;;;18.88;71.51
49461;BME280;35355;49.198;-0.368;2022-07-29T01:05:32;101010.28;;;18.90;71.82
49461;BME280;35355;49.198;-0.368;2022-07-29T01:07:58;101008.31;;;18.91;71.86
49461;BME280;35355;49.198;-0.368;2022-07-29T01:10:25;101003.31;;;18.93;71.90
49461;BME280;35355;49.198;-0.368;2022-07-29T01:12:52;101007.41;;;18.96;71.69
49461;BME280;35355;49.198;-0.368;2022-07-29T01:15:19;101005.94;;;18.98;71.74
49461;BME280;35355;49.198;-0.368;2022-07-29T01:23:03;101005.78;;;18.95;70.98
49461;BME280;35355;49.198;-0.368;2022-07-29T01:29:00;100999.03;;;18.87;70.53
49461;BME280;35355;49.198;-0.368;2022-07-29T01:31:57;101011.22;;;18.86;70.64
49461;BME280;35355;49.198;-0.368;2022-07-29T01:34:28;101001.88;;;18.82;71.36
49461;BME280;35355;49.198;-0.368;2022-07-29T01:37:12;101001.38;;;18.80;71.47
49461;BME280;35355;49.198;-0.368;2022-07-29T01:39:42;101002.00;;;18.76;71.79
49461;BME280;35355;49.198;-0.368;2022-07-29T01:42:25;101001.47;;;18.74;71.97
49461;BME280;35355;49.198;-0.368;2022-07-29T01:45:02;100999.66;;;18.70;71.49
49461;BME280;35355;49.198;-0.368;2022-07-29T01:48:02;101004.06;;;18.71;70.71
49461;BME280;35355;49.198;-0.368;2022-07-29T01:50:38;100998.84;;;18.69;71.40
49461;BME280;35355;49.198;-0.368;2022-07-29T01:53:08;101002.91;;;18.72;71.70
49461;BME280;35355;49.198;-0.368;2022-07-29T01:55:40;101004.25;;;18.74;71.69
49461;BME280;35355;49.198;-0.368;2022-07-29T01:58:07;101002.09;;;18.71;72.19
49461;BME280;35355;49.198;-0.368;2022-07-29T02:00:34;101005.97;;;18.70;72.17
49461;BME280;35355;49.198;-0.368;2022-07-29T02:03:04;101002.72;;;18.68;71.81
49461;BME280;35355;49.198;-0.368;2022-07-29T02:05:32;101001.06;;;18.67;72.23
49461;BME280;35355;49.198;-0.368;2022-07-29T02:08:00;101007.22;;;18.64;72.44
49461;BME280;35355;49.198;-0.368;2022-07-29T02:10:28;101014.41;;;18.65;72.64
49461;BME280;35355;49.198;-0.368;2022-07-29T02:12:56;101011.16;;;18.63;72.60
49461;BME280;35355;49.198;-0.368;2022-07-29T02:15:24;101005.63;;;18.63;72.73
49461;BME280;35355;49.198;-0.368;2022-07-29T02:18:04;101006.59;;;18.67;72.57
49461;BME280;35355;49.198;-0.368;2022-07-29T02:20:30;101000.44;;;18.70;72.60
49461;BME280;35355;49.198;-0.368;2022-07-29T02:22:58;101008.44;;;18.72;72.57
49461;BME280;35355;49.198;-0.368;2022-07-29T02:25:25;100998.22;;;18.72;72.87
49461;BME280;35355;49.198;-0.368;2022-07-29T02:27:52;101005.38;;;18.73;72.63
49461;BME280;35355;49.198;-0.368;2022-07-29T02:30:19;101005.88;;;18.75;72.59
49461;BME280;35355;49.198;-0.368;2022-07-29T02:32:47;100997.91;;;18.74;72.57
49461;BME280;35355;49.198;-0.368;2022-07-29T02:35:14;101011.41;;;18.75;72.38
49461;BME280;35355;49.198;-0.368;2022-07-29T02:37:42;101008.16;;;18.73;72.66
49461;BME280;35355;49.198;-0.368;2022-07-29T02:40:11;101009.59;;;18.71;72.36
49461;BME280;35355;49.198;-0.368;2022-07-29T02:42:41;101003.84;;;18.67;72.24
49461;BME280;35355;49.198;-0.368;2022-07-29T02:45:07;101006.13;;;18.65;72.64
49461;BME280;35355;49.198;-0.368;2022-07-29T02:47:48;101014.81;;;18.58;72.35
49461;BME280;35355;49.198;-0.368;2022-07-29T02:50:20;101006.94;;;18.52;72.96
49461;BME280;35355;49.198;-0.368;2022-07-29T02:52:57;101010.97;;;18.46;72.32
49461;BME280;35355;49.198;-0.368;2022-07-29T02:58:05;101009.84;;;18.33;72.77
49461;BME280;35355;49.198;-0.368;2022-07-29T03:00:36;101006.34;;;18.27;72.50
49461;BME280;35355;49.198;-0.368;2022-07-29T03:03:04;101011.38;;;18.25;72.80
49461;BME280;35355;49.198;-0.368;2022-07-29T03:05:32;101004.19;;;18.24;73.25
49461;BME280;35355;49.198;-0.368;2022-07-29T03:08:01;101008.31;;;18.27;72.81
49461;BME280;35355;49.198;-0.368;2022-07-29T03:10:28;101010.75;;;18.28;73.00
49461;BME280;35355;49.198;-0.368;2022-07-29T03:12:55;101014.13;;;18.25;72.51
49461;BME280;35355;49.198;-0.368;2022-07-29T03:15:21;101011.38;;;18.25;72.80
49461;BME280;35355;49.198;-0.368;2022-07-29T03:17:47;101012.00;;;18.22;72.48
49461;BME280;35355;49.198;-0.368;2022-07-29T03:20:13;101014.84;;;18.17;72.27
49461;BME280;35355;49.198;-0.368;2022-07-29T03:22:40;101014.41;;;18.10;72.15
49461;BME280;35355;49.198;-0.368;2022-07-29T03:25:10;101011.47;;;18.06;72.45
49461;BME280;35355;49.198;-0.368;2022-07-29T03:27:36;101013.91;;;18.08;72.51
49461;BME280;35355;49.198;-0.368;2022-07-29T03:30:02;101009.22;;;18.08;72.57
49461;BME280;35355;49.198;-0.368;2022-07-29T03:32:28;101009.31;;;18.03;72.15
49461;BME280;35355;49.198;-0.368;2022-07-29T03:34:54;101011.97;;;17.94;72.21
49461;BME280;35355;49.198;-0.368;2022-07-29T03:37:19;101011.50;;;17.87;72.22
49461;BME280;35355;49.198;-0.368;2022-07-29T03:39:45;101002.31;;;17.78;72.35
49461;BME280;35355;49.198;-0.368;2022-07-29T03:42:15;101003.22;;;17.73;72.25
49461;BME280;35355;49.198;-0.368;2022-07-29T03:44:44;101002.47;;;17.67;72.25
49461;BME280;35355;49.198;-0.368;2022-07-29T03:47:13;101005.63;;;17.61;72.54
49461;BME280;35355;49.198;-0.368;2022-07-29T03:49:40;101012.34;;;17.54;72.50
49461;BME280;35355;49.198;-0.368;2022-07-29T03:52:07;101011.63;;;17.49;72.55
49461;BME280;35355;49.198;-0.368;2022-07-29T03:54:34;101018.88;;;17.45;72.61
49461;BME280;35355;49.198;-0.368;2022-07-29T03:57:02;101010.38;;;17.41;72.67
49461;BME280;35355;49.198;-0.368;2022-07-29T03:59:30;101014.25;;;17.40;72.85
49461;BME280;35355;49.198;-0.368;2022-07-29T04:01:58;101014.84;;;17.37;73.05
49461;BME280;35355;49.198;-0.368;2022-07-29T04:04:24;101008.53;;;17.36;72.93
49461;BME280;35355;49.198;-0.368;2022-07-29T04:06:50;101019.88;;;17.35;72.76
49461;BME280;35355;49.198;-0.368;2022-07-29T04:09:16;101022.38;;;17.31;72.89
49461;BME280;35355;49.198;-0.368;2022-07-29T04:11:42;101018.63;;;17.27;72.92
49461;BME280;35355;49.198;-0.368;2022-07-29T04:14:08;101020.31;;;17.23;72.99
49461;BME280;35355;49.198;-0.368;2022-07-29T04:16:33;101012.66;;;17.20;72.96
49461;BME280;35355;49.198;-0.368;2022-07-29T04:18:59;101019.28;;;17.19;72.99
49461;BME280;35355;49.198;-0.368;2022-07-29T04:21:25;101018.25;;;17.15;73.39
49461;BME280;35355;49.198;-0.368;2022-07-29T04:23:51;101020.47;;;17.13;73.43
49461;BME280;35355;49.198;-0.368;2022-07-29T04:26:17;101030.69;;;17.12;73.24
49461;BME280;35355;49.198;-0.368;2022-07-29T04:28:43;101028.22;;;17.11;73.45
49461;BME280;35355;49.198;-0.368;2022-07-29T04:31:10;101023.31;;;17.08;73.53
49461;BME280;35355;49.198;-0.368;2022-07-29T04:33:36;101018.94;;;17.07;73.49
49461;BME280;35355;49.198;-0.368;2022-07-29T04:36:01;101024.44;;;17.07;73.66
49461;BME280;35355;49.198;-0.368;2022-07-29T04:38:27;101021.97;;;17.05;73.79
49461;BME280;35355;49.198;-0.368;2022-07-29T04:40:55;101014.53;;;17.06;73.42
49461;BME280;35355;49.198;-0.368;2022-07-29T04:43:24;101021.09;;;17.10;73.64
49461;BME280;35355;49.198;-0.368;2022-07-29T04:45:50;101022.09;;;17.14;73.61
49461;BME280;35355;49.198;-0.368;2022-07-29T04:48:15;101028.06;;;17.21;73.67
49461;BME280;35355;49.198;-0.368;2022-07-29T04:50:41;101032.41;;;17.27;73.26
49461;BME280;35355;49.198;-0.368;2022-07-29T04:53:07;101033.66;;;17.35;73.07
49461;BME280;35355;49.198;-0.368;2022-07-29T04:55:33;101031.41;;;17.37;72.88
49461;BME280;35355;49.198;-0.368;2022-07-29T04:57:59;101033.88;;;17.39;73.13
49461;BME280;35355;49.198;-0.368;2022-07-29T05:00:27;101029.38;;;17.43;73.00
49461;BME280;35355;49.198;-0.368;2022-07-29T05:02:59;101036.75;;;17.47;73.05
49461;BME280;35355;49.198;-0.368;2022-07-29T05:05:25;101029.84;;;17.50;72.90
49461;BME280;35355;49.198;-0.368;2022-07-29T05:07:50;101041.06;;;17.53;73.20
49461;BME280;35355;49.198;-0.368;2022-07-29T05:10:16;101039.16;;;17.54;73.11
49461;BME280;35355;49.198;-0.368;2022-07-29T05:12:43;101039.16;;;17.54;73.20
49461;BME280;35355;49.198;-0.368;2022-07-29T05:15:09;101037.19;;;17.54;73.30
49461;BME280;35355;49.198;-0.368;2022-07-29T05:17:38;101039.66;;;17.56;73.24
49461;BME280;35355;49.198;-0.368;2022-07-29T05:20:05;101041.31;;;17.57;73.43
49461;BME280;35355;49.198;-0.368;2022-07-29T05:41:31;101064.06;;;17.82;70.90
49461;BME280;35355;49.198;-0.368;2022-07-29T05:43:58;101063.69;;;17.88;71.74
49461;BME280;35355;49.198;-0.368;2022-07-29T05:46:23;101066.59;;;17.97;71.98
49461;BME280;35355;49.198;-0.368;2022-07-29T05:48:49;101068.66;;;18.05;72.31
49461;BME280;35355;49.198;-0.368;2022-07-29T05:51:15;101074.81;;;18.16;72.42
49461;BME280;35355;49.198;-0.368;2022-07-29T05:53:40;101076.53;;;18.26;72.66
49461;BME280;35355;49.198;-0.368;2022-07-29T05:56:06;101083.81;;;18.36;72.59
49461;BME280;35355;49.198;-0.368;2022-07-29T05:58:32;101084.75;;;18.45;72.78
49461;BME280;35355;49.198;-0.368;2022-07-29T06:00:58;101086.50;;;18.55;72.58
49461;BME280;35355;49.198;-0.368;2022-07-29T06:03:27;101083.03;;;18.63;72.49
49461;BME280;35355;49.198;-0.368;2022-07-29T06:05:54;101088.34;;;18.73;72.57
49461;BME280;35355;49.198;-0.368;2022-07-29T06:08:20;101080.75;;;18.79;72.32
49461;BME280;35355;49.198;-0.368;2022-07-29T06:10:45;101084.22;;;18.85;72.54
49461;BME280;35355;49.198;-0.368;2022-07-29T06:13:11;101094.91;;;18.91;72.15
49461;BME280;35355;49.198;-0.368;2022-07-29T06:15:37;101089.25;;;18.97;72.21
49461;BME280;35355;49.198;-0.368;2022-07-29T06:18:03;101087.19;;;19.02;72.30
49461;BME280;35355;49.198;-0.368;2022-07-29T06:20:30;101095.91;;;19.09;71.99
49461;BME280;35355;49.198;-0.368;2022-07-29T06:22:56;101092.19;;;19.14;71.98
49461;BME280;35355;49.198;-0.368;2022-07-29T06:25:22;101087.69;;;19.18;71.56
49461;BME280;35355;49.198;-0.368;2022-07-29T06:27:48;101089.50;;;19.23;71.50
49461;BME280;35355;49.198;-0.368;2022-07-29T06:30:14;101097.50;;;19.24;71.37
49461;BME280;35355;49.198;-0.368;2022-07-29T06:32:39;101094.41;;;19.26;71.14
49461;BME280;35355;49.198;-0.368;2022-07-29T06:35:05;101095.75;;;19.28;71.29
49461;BME280;35355;49.198;-0.368;2022-07-29T06:37:31;101102.00;;;19.34;71.24
49461;BME280;35355;49.198;-0.368;2022-07-29T06:39:57;101101.34;;;19.37;71.13
49461;BME280;35355;49.198;-0.368;2022-07-29T06:42:44;101102.66;;;19.40;70.78
49461;BME280;35355;49.198;-0.368;2022-07-29T06:45:11;101100.09;;;19.43;70.81
49461;BME280;35355;49.198;-0.368;2022-07-29T06:47:37;101107.78;;;19.46;70.60
49461;BME280;35355;49.198;-0.368;2022-07-29T06:50:03;101106.66;;;19.48;70.49
49461;BME280;35355;49.198;-0.368;2022-07-29T06:52:29;101106.34;;;19.49;70.35
49461;BME280;35355;49.198;-0.368;2022-07-29T06:54:56;101114.34;;;19.51;70.18
49461;BME280;35355;49.198;-0.368;2022-07-29T06:57:22;101113.50;;;19.50;70.47
49461;BME280;35355;49.198;-0.368;2022-07-29T06:59:47;101112.38;;;19.51;70.17
49461;BME280;35355;49.198;-0.368;2022-07-29T07:02:13;101115.66;;;19.53;70.35
49461;BME280;35355;49.198;-0.368;2022-07-29T07:04:39;101108.66;;;19.56;69.85
49461;BME280;35355;49.198;-0.368;2022-07-29T07:07:05;101119.94;;;19.59;69.86
49461;BME280;35355;49.198;-0.368;2022-07-29T07:09:30;101120.97;;;19.63;69.31
49461;BME280;35355;49.198;-0.368;2022-07-29T07:11:56;101123.59;;;19.69;68.63
49461;BME280;35355;49.198;-0.368;2022-07-29T07:14:23;101125.72;;;19.72;68.18
49461;BME280;35355;49.198;-0.368;2022-07-29T07:16:48;101122.63;;;19.73;67.93
49461;BME280;35355;49.198;-0.368;2022-07-29T07:19:14;101123.97;;;19.76;67.78
49461;BME280;35355;49.198;-0.368;2022-07-29T07:21:41;101128.59;;;19.80;67.58
49461;BME280;35355;49.198;-0.368;2022-07-29T07:24:07;101126.84;;;19.85;67.27
49461;BME280;35355;49.198;-0.368;2022-07-29T07:26:33;101133.06;;;19.90;66.75
49461;BME280;35355;49.198;-0.368;2022-07-29T07:28:59;101130.47;;;19.94;66.62
49461;BME280;35355;49.198;-0.368;2022-07-29T07:31:25;101135.91;;;19.99;66.41
49461;BME280;35355;49.198;-0.368;2022-07-29T07:33:51;101123.53;;;20.05;66.22
49461;BME280;35355;49.198;-0.368;2022-07-29T07:36:18;101124.25;;;20.11;65.87
49461;BME280;35355;49.198;-0.368;2022-07-29T07:38:44;101125.41;;;20.19;65.46
49461;BME280;35355;49.198;-0.368;2022-07-29T07:41:10;101128.03;;;20.24;64.63
49461;BME280;35355;49.198;-0.368;2022-07-29T07:43:36;101138.69;;;20.30;64.11
49461;BME280;35355;49.198;-0.368;2022-07-29T07:46:02;101136.59;;;20.36;63.31
49461;BME280;35355;49.198;-0.368;2022-07-29T07:48:27;101128.00;;;20.46;62.32
49461;BME280;35355;49.198;-0.368;2022-07-29T07:50:53;101126.06;;;20.56;61.97
49461;BME280;35355;49.198;-0.368;2022-07-29T07:53:19;101128.59;;;20.66;61.63
49461;BME280;35355;49.198;-0.368;2022-07-29T07:55:45;101133.22;;;20.79;61.92
49461;BME280;35355;49.198;-0.368;2022-07-29T07:58:10;101138.94;;;20.92;61.23
49461;BME280;35355;49.198;-0.368;2022-07-29T08:00:37;101131.31;;;21.06;60.93
49461;BME280;35355;49.198;-0.368;2022-07-29T08:03:03;101142.91;;;21.17;59.94
49461;BME280;35355;49.198;-0.368;2022-07-29T08:05:29;101135.09;;;21.28;59.62
49461;BME280;35355;49.198;-0.368;2022-07-29T08:07:55;101138.22;;;21.35;59.31
49461;BME280;35355;49.198;-0.368;2022-07-29T08:10:22;101139.19;;;21.39;58.92
49461;BME280;35355;49.198;-0.368;2022-07-29T08:13:07;101141.81;;;21.44;58.56
49461;BME280;35355;49.198;-0.368;2022-07-29T08:15:33;101136.63;;;21.51;58.34
49461;BME280;35355;49.198;-0.368;2022-07-29T08:17:59;101137.44;;;21.61;57.15
49461;BME280;35355;49.198;-0.368;2022-07-29T08:20:25;101136.63;;;21.69;57.36
49461;BME280;35355;49.198;-0.368;2022-07-29T08:22:51;101136.13;;;21.76;56.86
49461;BME280;35355;49.198;-0.368;2022-07-29T08:25:18;101136.09;;;21.84;56.84
49461;BME280;35355;49.198;-0.368;2022-07-29T08:27:46;101139.34;;;21.95;56.22
49461;BME280;35355;49.198;-0.368;2022-07-29T08:30:12;101132.66;;;22.05;55.85
49461;BME280;35355;49.198;-0.368;2022-07-29T08:32:38;101133.75;;;22.13;55.57
49461;BME280;35355;49.198;-0.368;2022-07-29T08:35:05;101139.81;;;22.23;55.95
49461;BME280;35355;49.198;-0.368;2022-07-29T08:37:31;101134.38;;;22.36;55.63
49461;BME280;35355;49.198;-0.368;2022-07-29T08:39:56;101138.78;;;22.46;54.77
49461;BME280;35355;49.198;-0.368;2022-07-29T08:42:22;101138.25;;;22.52;55.06
49461;BME280;35355;49.198;-0.368;2022-07-29T08:44:48;101131.34;;;22.58;54.73
49461;BME280;35355;49.198;-0.368;2022-07-29T08:47:16;101132.94;;;22.68;54.66
49461;BME280;35355;49.198;-0.368;2022-07-29T08:49:42;101129.31;;;22.76;54.13
49461;BME280;35355;49.198;-0.368;2022-07-29T08:52:10;101131.22;;;22.85;53.66
49461;BME280;35355;49.198;-0.368;2022-07-29T08:54:37;101132.31;;;22.92;52.47
49461;BME280;35355;49.198;-0.368;2022-07-29T08:57:04;101130.97;;;22.99;52.38
49461;BME280;35355;49.198;-0.368;2022-07-29T08:59:34;101130.28;;;23.10;51.90
49461;BME280;35355;49.198;-0.368;2022-07-29T09:02:01;101127.56;;;23.23;51.45
49461;BME280;35355;49.198;-0.368;2022-07-29T09:04:30;101129.75;;;23.38;51.94
49461;BME280;35355;49.198;-0.368;2022-07-29T09:07:00;101138.53;;;23.49;51.35
49461;BME280;35355;49.198;-0.368;2022-07-29T09:09:29;101139.13;;;23.55;50.56
49461;BME280;35355;49.198;-0.368;2022-07-29T09:11:58;101138.56;;;23.61;50.26
49461;BME280;35355;49.198;-0.368;2022-07-29T09:14:26;101142.31;;;23.65;50.42
49461;BME280;35355;49.198;-0.368;2022-07-29T09:16:55;101141.75;;;23.72;50.52
49461;BME280;35355;49.198;-0.368;2022-07-29T09:19:35;101135.94;;;23.86;50.37
49461;BME280;35355;49.198;-0.368;2022-07-29T09:22:03;101134.31;;;23.97;48.99
49461;BME280;35355;49.198;-0.368;2022-07-29T09:24:42;101139.97;;;24.10;48.95
49461;BME280;35355;49.198;-0.368;2022-07-29T09:27:23;101140.06;;;24.13;48.86
49461;BME280;35355;49.198;-0.368;2022-07-29T09:30:10;101138.81;;;24.23;48.33
49461;BME280;35355;49.198;-0.368;2022-07-29T09:33:00;101131.16;;;24.32;48.96
49461;BME280;35355;49.198;-0.368;2022-07-29T09:35:27;101138.84;;;24.35;46.56
49461;BME280;35355;49.198;-0.368;2022-07-29T09:37:53;101139.06;;;24.30;46.05
49461;BME280;35355;49.198;-0.368;2022-07-29T09:40:27;101136.38;;;24.22;46.71
49461;BME280;35355;49.198;-0.368;2022-07-29T09:42:54;101138.91;;;24.14;46.15
49461;BME280;35355;49.198;-0.368;2022-07-29T09:45:31;101138.47;;;24.12;46.70
49461;BME280;35355;49.198;-0.368;2022-07-29T09:47:58;101142.66;;;24.19;46.39
49461;BME280;35355;49.198;-0.368;2022-07-29T09:50:38;101136.16;;;24.27;47.22
49461;BME280;35355;49.198;-0.368;2022-07-29T09:53:04;101139.06;;;24.30;45.35
49461;BME280;35355;49.198;-0.368;2022-07-29T09:55:29;101136.88;;;24.36;44.80
49461;BME280;35355;49.198;-0.368;2022-07-29T09:58:15;101134.66;;;24.42;46.80
49461;BME280;35355;49.198;-0.368;2022-07-29T10:00:42;101119.69;;;24.46;44.52
49461;BME280;35355;49.198;-0.368;2022-07-29T10:03:09;101123.88;;;24.52;44.46
49461;BME280;35355;49.198;-0.368;2022-07-29T10:05:35;101122.50;;;24.59;44.22
49461;BME280;35355;49.198;-0.368;2022-07-29T10:08:00;101117.03;;;24.62;43.68
49461;BME280;35355;49.198;-0.368;2022-07-29T10:10:32;101120.06;;;24.69;44.48
49461;BME280;35355;49.198;-0.368;2022-07-29T10:13:04;101128.66;;;24.77;43.70
49461;BME280;35355;49.198;-0.368;2022-07-29T10:15:32;101125.66;;;24.82;43.62
49461;BME280;35355;49.198;-0.368;2022-07-29T10:17:59;101124.13;;;24.84;42.38
49461;BME280;35355;49.198;-0.368;2022-07-29T10:20:26;101124.94;;;24.85;42.84
49461;BME280;35355;49.198;-0.368;2022-07-29T10:22:53;101122.50;;;24.83;42.60
49461;BME280;35355;49.198;-0.368;2022-07-29T10:25:20;101116.22;;;24.86;42.41
49461;BME280;35355;49.198;-0.368;2022-07-29T10:27:47;101119.47;;;24.89;42.57
49461;BME280;35355;49.198;-0.368;2022-07-29T10:30:14;101120.41;;;24.93;42.67
49461;BME280;35355;49.198;-0.368;2022-07-29T10:38:18;101126.31;;;25.03;42.74
49461;BME280;35355;49.198;-0.368;2022-07-29T10:43:59;101129.41;;;25.27;41.68
49461;BME280;35355;49.198;-0.368;2022-07-29T10:46:27;101124.16;;;25.37;41.57
49461;BME280;35355;49.198;-0.368;2022-07-29T10:49:06;101118.09;;;25.48;43.05
49461;BME280;35355;49.198;-0.368;2022-07-29T10:59:43;101136.75;;;25.72;41.57
49461;BME280;35355;49.198;-0.368;2022-07-29T11:07:20;101136.34;;;25.86;40.77
49461;BME280;35355;49.198;-0.368;2022-07-29T11:20:45;101138.94;;;25.79;43.12
49461;BME280;35355;49.198;-0.368;2022-07-29T11:23:31;101142.66;;;25.83;42.21
49461;BME280;35355;49.198;-0.368;2022-07-29T11:28:59;101140.66;;;25.83;42.70
49461;BME280;35355;49.198;-0.368;2022-07-29T11:34:27;101143.59;;;25.74;42.79
49461;BME280;35355;49.198;-0.368;2022-07-29T11:47:27;101152.34;;;25.45;41.49
49461;BME280;35355;49.198;-0.368;2022-07-29T11:49:55;101155.41;;;25.39;41.32
49461;BME280;35355;49.198;-0.368;2022-07-29T11:52:22;101149.59;;;25.32;41.05
49461;BME280;35355;49.198;-0.368;2022-07-29T11:54:50;101151.31;;;25.25;40.94
49461;BME280;35355;49.198;-0.368;2022-07-29T11:57:20;101152.34;;;25.20;41.47
49461;BME280;35355;49.198;-0.368;2022-07-29T11:59:47;101160.84;;;25.24;41.39
49461;BME280;35355;49.198;-0.368;2022-07-29T12:02:14;101164.00;;;25.34;41.18
49461;BME280;35355;49.198;-0.368;2022-07-29T12:04:55;101165.84;;;25.43;42.00
49461;BME280;35355;49.198;-0.368;2022-07-29T12:07:31;101162.44;;;25.49;41.52
49461;BME280;35355;49.198;-0.368;2022-07-29T12:09:58;101162.56;;;25.53;40.27
49461;BME280;35355;49.198;-0.368;2022-07-29T12:12:24;101161.38;;;25.54;39.80
49461;BME280;35355;49.198;-0.368;2022-07-29T12:14:53;101152.56;;;25.52;39.90
49461;BME280;35355;49.198;-0.368;2022-07-29T12:17:34;101154.91;;;25.50;40.95
49461;BME280;35355;49.198;-0.368;2022-07-29T12:20:04;101154.06;;;25.49;40.63
49461;BME280;35355;49.198;-0.368;2022-07-29T12:22:33;101156.50;;;25.51;39.83
49461;BME280;35355;49.198;-0.368;2022-07-29T12:25:04;101162.22;;;25.54;39.93
49461;BME280;35355;49.198;-0.368;2022-07-29T12:27:31;101160.22;;;25.55;39.11
49461;BME280;35355;49.198;-0.368;2022-07-29T12:30:00;101160.69;;;25.57;39.45
49461;BME280;35355;49.198;-0.368;2022-07-29T12:32:39;101147.38;;;25.66;40.38
49461;BME280;35355;49.198;-0.368;2022-07-29T12:35:16;101158.06;;;25.77;40.12
49461;BME280;35355;49.198;-0.368;2022-07-29T12:37:44;101149.53;;;25.85;39.51
49461;BME280;35355;49.198;-0.368;2022-07-29T12:40:13;101156.56;;;25.95;39.48
49461;BME280;35355;49.198;-0.368;2022-07-29T12:43:04;101158.66;;;25.98;39.53
49461;BME280;35355;49.198;-0.368;2022-07-29T12:45:31;101158.31;;;26.00;39.91
49461;BME280;35355;49.198;-0.368;2022-07-29T12:47:57;101155.63;;;26.03;40.00
49461;BME280;35355;49.198;-0.368;2022-07-29T12:50:22;101153.28;;;26.05;40.19
49461;BME280;35355;49.198;-0.368;2022-07-29T12:52:49;101164.59;;;26.09;39.83
49461;BME280;35355;49.198;-0.368;2022-07-29T12:55:14;101163.31;;;26.06;39.72
49461;BME280;35355;49.198;-0.368;2022-07-29T12:57:51;101165.19;;;26.02;40.19
49461;BME280;35355;49.198;-0.368;2022-07-29T13:00:23;101175.44;;;25.98;39.63
49461;BME280;35355;49.198;-0.368;2022-07-29T13:02:57;101168.13;;;25.94;39.95
49461;BME280;35355;49.198;-0.368;2022-07-29T13:05:31;101165.78;;;25.96;39.63
49461;BME280;35355;49.198;-0.368;2022-07-29T13:08:11;101169.63;;;26.03;40.36
49461;BME280;35355;49.198;-0.368;2022-07-29T13:10:37;101170.53;;;26.07;39.90
49461;BME280;35355;49.198;-0.368;2022-07-29T13:15:33;101169.50;;;26.00;40.72
49461;BME280;35355;49.198;-0.368;2022-07-29T13:18:00;101169.38;;;25.96;40.73
49461;BME280;35355;49.198;-0.368;2022-07-29T13:20:28;101171.97;;;25.89;40.94
49461;BME280;35355;49.198;-0.368;2022-07-29T13:22:59;101174.47;;;25.78;40.99
49461;BME280;35355;49.198;-0.368;2022-07-29T13:25:29;101173.63;;;25.62;41.20
49461;BME280;35355;49.198;-0.368;2022-07-29T13:27:58;101167.13;;;25.45;41.34
49461;BME280;35355;49.198;-0.368;2022-07-29T13:30:24;101171.09;;;25.32;41.65
49461;BME280;35355;49.198;-0.368;2022-07-29T13:32:51;101175.19;;;25.22;41.80
49461;BME280;35355;49.198;-0.368;2022-07-29T13:35:18;101182.53;;;25.14;41.96
49461;BME280;35355;49.198;-0.368;2022-07-29T13:37:44;101179.50;;;25.07;42.78
49461;BME280;35355;49.198;-0.368;2022-07-29T13:40:10;101174.97;;;25.02;42.64
49461;BME280;35355;49.198;-0.368;2022-07-29T13:42:36;101166.00;;;24.97;42.85
49461;BME280;35355;49.198;-0.368;2022-07-29T13:45:03;101190.56;;;24.91;42.98
49461;BME280;35355;49.198;-0.368;2022-07-29T13:47:30;101174.84;;;24.86;42.90
49461;BME280;35355;49.198;-0.368;2022-07-29T13:49:56;101172.78;;;24.83;42.72
49461;BME280;35355;49.198;-0.368;2022-07-29T13:52:22;101175.91;;;24.82;43.08
49461;BME280;35355;49.198;-0.368;2022-07-29T14:11:40;101178.66;;;24.11;44.33
49461;BME280;35355;49.198;-0.368;2022-07-29T14:14:06;101163.56;;;24.12;44.81
49461;BME280;35355;49.198;-0.368;2022-07-29T14:16:32;101175.97;;;24.15;45.15
49461;BME280;35355;49.198;-0.368;2022-07-29T14:18:57;101176.94;;;24.19;45.44
49461;BME280;35355;49.198;-0.368;2022-07-29T14:21:23;101168.69;;;24.23;44.80
49461;BME280;35355;49.198;-0.368;2022-07-29T14:23:49;101178.81;;;24.27;45.25
49461;BME280;35355;49.198;-0.368;2022-07-29T14:26:14;101180.09;;;24.30;44.83